createdAt,value
2023-05-14T00:01:30.715Z,93824.25
2023-05-14T00:03:58.634Z,93811.22
2023-05-14T00:06:26.096Z,93816.84
2023-05-14T00:08:53.306Z,93816.62
2023-05-14T00:11:21.585Z,93818.78
2023-05-14T00:13:49.934Z,93811.50
2023-05-14T00:16:17.305Z,93804.19
2023-05-14T00:18:44.989Z,93801.12
2023-05-14T00:21:13.056Z,93801.56
2023-05-14T00:23:40.408Z,93795.97
2023-05-14T00:26:08.088Z,93784.31
2023-05-14T00:28:35.615Z,93790.50
2023-05-14T00:31:02.853Z,93787.66
2023-05-14T00:33:31.054Z,93783.09
2023-05-14T00:35:58.267Z,93786.91
2023-05-14T00:38:27.930Z,93771.25
2023-05-14T00:40:56.025Z,93774.00
2023-05-14T00:43:23.354Z,93779.25
2023-05-14T00:45:52.604Z,93774.94
2023-05-14T00:48:21.865Z,93772.13
2023-05-14T00:50:51.031Z,93767.81
2023-05-14T00:53:19.029Z,93772.75
2023-05-14T00:55:48.927Z,93767.50
2023-05-14T00:58:16.572Z,93758.59
2023-05-14T01:00:44.098Z,93763.06
2023-05-14T01:03:12.055Z,93767.81
2023-05-14T01:06:08.644Z,93762.91
2023-05-14T01:09:18.584Z,93763.38
2023-05-14T01:12:15.358Z,93756.78
2023-05-14T01:15:21.983Z,93751.66
2023-05-14T01:17:54.138Z,93751.06
2023-05-14T01:20:22.410Z,93753.47
2023-05-14T01:22:50.111Z,93753.34
2023-05-14T01:25:17.538Z,93746.66
2023-05-14T01:28:23.511Z,93751.56
2023-05-14T01:30:59.621Z,93766.50
2023-05-14T01:33:29.664Z,93777.31
2023-05-14T01:35:58.827Z,93786.97
2023-05-14T01:38:30.998Z,93781.59
2023-05-14T01:40:59.692Z,93776.59
2023-05-14T01:43:27.700Z,93771.59
2023-05-14T01:45:55.815Z,93767.03
2023-05-14T01:48:23.105Z,93772.84
2023-05-14T01:50:51.657Z,93782.75
2023-05-14T01:53:19.092Z,93787.22
2023-05-14T01:55:46.285Z,93783.69
2023-05-14T01:58:13.998Z,93793.91
2023-05-14T02:00:41.279Z,93789.72
2023-05-14T02:03:09.132Z,93797.03
2023-05-14T02:05:36.619Z,93797.94
2023-05-14T02:08:04.081Z,93792.22
2023-05-14T02:10:32.850Z,93793.03
2023-05-14T02:13:00.563Z,93790.88
2023-05-14T02:15:27.871Z,93794.06
2023-05-14T02:17:55.142Z,93801.44
2023-05-14T02:20:22.822Z,93803.28
2023-05-14T02:22:50.110Z,93805.91
2023-05-14T02:25:17.466Z,93800.91
2023-05-14T02:27:45.074Z,93805.69
2023-05-14T02:30:12.925Z,93805.00
2023-05-14T02:32:40.473Z,93811.72
2023-05-14T02:35:08.653Z,93805.00
2023-05-14T02:37:35.973Z,93812.63
2023-05-14T02:40:04.599Z,93807.19
2023-05-14T02:42:32.712Z,93805.34
2023-05-14T02:45:00.103Z,93798.06
2023-05-14T02:47:27.407Z,93804.31
2023-05-14T02:49:56.693Z,93813.91
2023-05-14T02:52:24.077Z,93815.72
2023-05-14T02:54:51.317Z,93816.28
2023-05-14T02:57:18.896Z,93817.22
2023-05-14T02:59:46.193Z,93827.44
2023-05-14T03:02:13.880Z,93834.28
2023-05-14T03:04:41.876Z,93832.81
2023-05-14T03:07:09.301Z,93825.84
2023-05-14T03:09:38.316Z,93831.75
2023-05-14T03:12:07.725Z,93829.59
2023-05-14T03:14:34.992Z,93832.91
2023-05-14T03:17:02.772Z,93820.16
2023-05-14T03:19:30.480Z,93814.22
2023-05-14T03:21:57.985Z,93810.28
2023-05-14T03:24:25.876Z,93806.34
2023-05-14T03:26:53.659Z,93806.66
2023-05-14T03:29:20.998Z,93807.31
2023-05-14T03:31:48.456Z,93799.38
2023-05-14T03:34:16.293Z,93806.44
2023-05-14T03:36:43.685Z,93811.87
2023-05-14T03:39:11.058Z,93818.00
2023-05-14T03:41:39.443Z,93824.09
2023-05-14T03:44:06.914Z,93824.00
2023-05-14T03:46:34.562Z,93809.47
2023-05-14T03:49:02.629Z,93811.53
2023-05-14T03:51:29.959Z,93807.69
2023-05-14T03:53:58.517Z,93796.03
2023-05-14T03:56:26.384Z,93810.16
2023-05-14T03:58:53.689Z,93813.03
2023-05-14T04:01:20.972Z,93822.09
2023-05-14T04:03:48.840Z,93820.75
2023-05-14T04:06:16.377Z,93819.63
2023-05-14T04:08:43.749Z,93820.31
2023-05-14T04:11:11.454Z,93816.06
2023-05-14T04:13:38.940Z,93819.66
2023-05-14T04:16:06.590Z,93822.59
2023-05-14T04:18:35.967Z,93823.53
2023-05-14T04:21:03.391Z,93836.97
2023-05-14T04:23:32.095Z,93835.56
2023-05-14T04:25:59.944Z,93830.22
2023-05-14T04:28:27.222Z,93834.00
2023-05-14T04:30:54.682Z,93847.50
2023-05-14T04:33:22.708Z,93841.63
2023-05-14T04:35:52.359Z,93845.13
2023-05-14T04:38:20.058Z,93848.56
2023-05-14T04:40:47.837Z,93855.13
2023-05-14T04:43:15.359Z,93858.97
2023-05-14T04:45:43.326Z,93866.37
2023-05-14T04:48:11.161Z,93869.44
2023-05-14T04:50:38.623Z,93862.62
2023-05-14T04:53:05.955Z,93859.28
2023-05-14T04:55:33.686Z,93844.84
2023-05-14T04:58:01.051Z,93865.84
2023-05-14T05:00:28.940Z,93878.56
2023-05-14T05:02:56.676Z,93884.81
2023-05-14T05:05:24.160Z,93883.22
2023-05-14T05:15:26.698Z,93910.28
2023-05-14T05:17:54.961Z,93910.28
2023-05-14T05:20:22.550Z,93913.13
2023-05-14T05:22:50.786Z,93925.41
2023-05-14T05:25:18.919Z,93931.88
2023-05-14T05:27:54.750Z,93932.53
2023-05-14T05:30:22.810Z,93934.69
2023-05-14T05:32:50.761Z,93930.88
2023-05-14T05:35:18.272Z,93933.81
2023-05-14T05:37:46.258Z,93941.63
2023-05-14T05:40:14.953Z,93946.50
2023-05-14T05:42:43.120Z,93940.31
2023-05-14T05:45:11.350Z,93935.94
2023-05-14T05:47:38.742Z,93941.37
2023-05-14T05:50:07.724Z,93936.22
2023-05-14T05:52:35.822Z,93940.34
2023-05-14T05:55:03.324Z,93940.84
2023-05-14T05:57:30.861Z,93949.97
2023-05-14T06:00:24.427Z,93954.13
2023-05-14T06:02:53.398Z,93942.28
2023-05-14T06:05:20.768Z,93949.69
2023-05-14T06:07:48.168Z,93937.25
2023-05-14T06:10:15.868Z,93932.41
2023-05-14T06:12:43.210Z,93938.34
2023-05-14T06:15:12.358Z,93933.44
2023-05-14T06:17:41.103Z,93941.97
2023-05-14T06:20:09.220Z,93950.13
2023-05-14T06:22:36.641Z,93953.16
2023-05-14T06:25:04.896Z,93945.47
2023-05-14T06:27:32.386Z,93943.50
2023-05-14T06:29:59.696Z,93940.41
2023-05-14T06:32:27.357Z,93944.25
2023-05-14T06:34:54.799Z,93930.06
2023-05-14T06:37:23.362Z,93912.56
2023-05-14T06:39:51.183Z,93910.03
2023-05-14T06:42:18.514Z,93917.22
2023-05-14T06:44:46.979Z,93930.62
2023-05-14T06:47:15.252Z,93931.66
2023-05-14T06:49:43.217Z,93924.94
2023-05-14T06:52:11.181Z,93936.41
2023-05-14T06:54:39.572Z,93939.94
2023-05-14T06:57:06.970Z,93944.31
2023-05-14T06:59:34.377Z,93936.38
2023-05-14T07:02:03.336Z,93924.84
2023-05-14T07:04:37.085Z,93925.81
2023-05-14T07:07:13.053Z,93915.38
2023-05-14T07:09:51.992Z,93907.47
2023-05-14T07:12:20.235Z,93900.72
2023-05-14T07:15:12.721Z,93893.19
2023-05-14T07:17:45.634Z,93892.12
2023-05-14T07:20:16.202Z,93905.03
2023-05-14T07:22:56.643Z,93893.25
2023-05-14T07:25:24.151Z,93903.94
2023-05-14T07:27:59.152Z,93923.59
2023-05-14T07:30:29.450Z,93934.28
2023-05-14T07:32:59.099Z,93948.84
2023-05-14T07:35:30.914Z,93938.19
2023-05-14T07:38:00.226Z,93932.53
2023-05-14T07:40:32.683Z,93938.12
2023-05-14T07:43:05.027Z,93926.50
2023-05-14T07:45:40.201Z,93936.19
2023-05-14T07:48:13.834Z,93941.59
2023-05-14T07:50:50.241Z,93931.94
2023-05-14T07:53:27.473Z,93941.59
2023-05-14T07:55:58.876Z,93930.12
2023-05-14T07:58:33.254Z,93934.59
2023-05-14T08:01:01.818Z,93954.09
2023-05-14T08:03:31.963Z,93966.47
2023-05-14T08:06:05.489Z,93946.19
2023-05-14T08:08:38.246Z,93967.56
2023-05-14T08:11:15.760Z,93947.97
2023-05-14T08:13:44.079Z,93958.09
2023-05-14T08:16:20.746Z,93945.91
2023-05-14T08:18:53.545Z,93935.75
2023-05-14T08:21:22.620Z,93927.94
2023-05-14T08:23:55.786Z,93928.16
2023-05-14T08:26:23.814Z,93931.06
2023-05-14T08:28:59.404Z,93941.13
2023-05-14T08:31:27.011Z,93928.81
2023-05-14T08:33:57.774Z,93914.03
2023-05-14T08:36:25.259Z,93928.25
2023-05-14T08:38:52.959Z,93925.87
2023-05-14T08:41:23.765Z,93927.13
2023-05-14T08:44:14.151Z,93926.16
2023-05-14T08:46:48.807Z,93928.03
2023-05-14T08:49:29.736Z,93921.28
2023-05-14T08:51:58.227Z,93913.97
2023-05-14T08:54:27.224Z,93911.59
2023-05-14T08:57:13.769Z,93902.66
2023-05-14T08:59:42.998Z,93907.25
2023-05-14T09:02:16.340Z,93893.03
2023-05-14T09:05:00.065Z,93895.19
2023-05-14T09:07:27.837Z,93904.63
2023-05-14T09:10:00.044Z,93889.53
2023-05-14T09:12:31.000Z,93883.00
2023-05-14T09:15:02.328Z,93904.50
2023-05-14T09:17:38.742Z,93911.75
2023-05-14T09:20:07.680Z,93902.22
2023-05-14T09:22:35.046Z,93906.44
2023-05-14T09:25:04.946Z,93909.09
2023-05-14T09:27:39.022Z,93911.09
2023-05-14T09:30:11.522Z,93912.53
2023-05-14T09:32:50.343Z,93913.38
2023-05-14T09:35:22.140Z,93906.62
2023-05-14T09:37:53.876Z,93894.34
2023-05-14T09:40:25.128Z,93897.66
2023-05-14T09:42:53.586Z,93903.78
2023-05-14T09:45:21.193Z,93905.09
2023-05-14T09:47:49.076Z,93890.88
2023-05-14T09:50:19.986Z,93893.72
2023-05-14T09:52:49.020Z,93888.16
2023-05-14T09:55:21.661Z,93885.25
2023-05-14T09:57:49.283Z,93872.13
2023-05-14T10:00:17.332Z,93861.53
2023-05-14T10:03:01.889Z,93860.56
2023-05-14T10:05:31.675Z,93865.37
2023-05-14T10:08:03.820Z,93874.38
2023-05-14T10:10:33.152Z,93868.06
2023-05-14T10:13:05.300Z,93860.31
2023-05-14T10:16:06.047Z,93850.81
2023-05-14T10:18:41.396Z,93842.91
2023-05-14T10:21:11.599Z,93836.03
2023-05-14T10:23:40.802Z,93840.75
2023-05-14T10:26:10.813Z,93839.91
2023-05-14T10:28:38.259Z,93839.00
2023-05-14T10:31:11.060Z,93840.91
2023-05-14T10:33:53.133Z,93827.22
2023-05-14T10:36:21.203Z,93806.66
2023-05-14T10:38:57.407Z,93824.44
2023-05-14T10:41:25.350Z,93837.00
2023-05-14T10:43:52.934Z,93837.03
2023-05-14T10:46:21.244Z,93834.75
2023-05-14T10:48:50.126Z,93842.97
2023-05-14T10:51:20.964Z,93843.13
2023-05-14T10:53:49.343Z,93853.06
2023-05-14T10:56:17.427Z,93837.91
2023-05-14T10:58:45.988Z,93846.38
2023-05-14T11:01:14.095Z,93861.34
2023-05-14T11:03:43.840Z,93864.75
2023-05-14T11:06:13.960Z,93853.84
2023-05-14T11:08:42.047Z,93838.03
2023-05-14T11:11:10.154Z,93818.50
2023-05-14T11:13:41.345Z,93822.22
2023-05-14T11:16:21.957Z,93828.75
2023-05-14T11:19:02.455Z,93828.81
2023-05-14T11:21:33.039Z,93824.34
2023-05-14T11:24:07.740Z,93830.53
2023-05-14T11:26:37.231Z,93819.66
2023-05-14T11:29:05.506Z,93818.13
2023-05-14T11:31:43.669Z,93825.03
2023-05-14T11:34:11.978Z,93825.84
2023-05-14T11:36:46.140Z,93834.69
2023-05-14T11:39:21.517Z,93819.59
2023-05-14T11:41:50.867Z,93821.19
2023-05-14T11:44:19.618Z,93820.16
2023-05-14T11:46:56.006Z,93815.50
2023-05-14T11:49:29.227Z,93814.13
2023-05-14T11:52:00.825Z,93812.56
2023-05-14T11:54:29.167Z,93815.03
2023-05-14T11:56:57.378Z,93811.78
2023-05-14T11:59:26.024Z,93810.09
2023-05-14T12:01:54.673Z,93810.25
2023-05-14T12:04:22.965Z,93811.31
2023-05-14T12:06:51.556Z,93804.00
2023-05-14T12:09:22.861Z,93795.28
2023-05-14T12:11:51.829Z,93807.56
2023-05-14T12:14:23.883Z,93786.38
2023-05-14T12:16:52.040Z,93782.06
2023-05-14T12:19:20.964Z,93793.53
2023-05-14T12:21:51.165Z,93786.78
2023-05-14T12:24:22.106Z,93780.91
2023-05-14T12:26:51.037Z,93774.53
2023-05-14T12:29:18.769Z,93769.31
2023-05-14T12:31:50.179Z,93775.56
2023-05-14T12:34:17.916Z,93770.31
2023-05-14T12:36:45.564Z,93761.16
2023-05-14T12:39:12.860Z,93761.81
2023-05-14T12:41:40.353Z,93750.84
2023-05-14T12:44:08.005Z,93755.06
2023-05-14T12:46:35.450Z,93747.53
2023-05-14T12:49:02.907Z,93746.38
2023-05-14T12:51:31.271Z,93750.50
2023-05-14T12:53:58.679Z,93745.94
2023-05-14T12:56:28.583Z,93734.41
2023-05-14T12:58:56.661Z,93726.66
2023-05-14T13:01:24.956Z,93732.44
2023-05-14T13:03:52.469Z,93729.31
2023-05-14T13:06:20.180Z,93733.63
2023-05-14T13:08:47.475Z,93733.25
2023-05-14T13:11:15.188Z,93733.09
2023-05-14T13:13:42.879Z,93736.88
2023-05-14T13:16:10.746Z,93740.03
2023-05-14T13:18:38.091Z,93743.47
2023-05-14T13:21:06.610Z,93731.19
2023-05-14T13:23:34.070Z,93717.06
2023-05-14T13:26:01.410Z,93728.09
2023-05-14T13:28:29.140Z,93709.81
2023-05-14T13:31:08.053Z,93694.34
2023-05-14T13:33:37.400Z,93707.09
2023-05-14T13:36:05.113Z,93702.25
2023-05-14T13:38:32.599Z,93712.34
2023-05-14T13:41:02.766Z,93710.75
2023-05-14T13:43:34.759Z,93712.78
2023-05-14T13:46:04.302Z,93717.06
2023-05-14T13:48:31.886Z,93714.16
2023-05-14T13:50:59.552Z,93711.84
2023-05-14T13:53:27.382Z,93716.47
2023-05-14T13:55:58.688Z,93708.06
2023-05-14T13:58:26.061Z,93698.63
2023-05-14T14:00:54.387Z,93703.34
2023-05-14T14:03:22.339Z,93688.91
2023-05-14T14:05:50.262Z,93693.91
2023-05-14T14:08:23.566Z,93695.31
2023-05-14T14:10:54.721Z,93700.53
2023-05-14T14:13:23.049Z,93697.63
2023-05-14T14:15:51.308Z,93700.44
2023-05-14T14:18:19.064Z,93709.44
2023-05-14T14:20:46.625Z,93693.25
2023-05-14T14:23:14.026Z,93700.94
2023-05-14T14:25:41.780Z,93692.47
2023-05-14T14:28:09.344Z,93690.44
2023-05-14T14:30:36.991Z,93689.47
2023-05-14T14:33:04.866Z,93704.03
2023-05-14T14:35:33.575Z,93703.06
2023-05-14T14:38:01.034Z,93701.75
2023-05-14T14:40:29.927Z,93695.53
2023-05-14T14:42:57.306Z,93698.81
2023-05-14T14:45:25.039Z,93695.53
2023-05-14T14:47:52.875Z,93702.72
2023-05-14T14:50:20.214Z,93699.28
2023-05-14T14:52:48.159Z,93697.31
2023-05-14T14:55:16.128Z,93699.63
2023-05-14T14:57:43.564Z,93694.88
2023-05-14T15:00:11.709Z,93688.50
2023-05-14T15:02:42.218Z,93699.69
2023-05-14T15:05:10.111Z,93698.59
2023-05-14T15:07:37.423Z,93697.47
2023-05-14T15:10:05.786Z,93696.31
2023-05-14T15:12:33.136Z,93693.13
2023-05-14T15:15:00.575Z,93689.34
2023-05-14T15:17:28.313Z,93695.81
2023-05-14T15:19:55.661Z,93694.50
2023-05-14T15:22:23.069Z,93689.50
2023-05-14T15:24:51.176Z,93685.78
2023-05-14T15:27:18.470Z,93677.22
2023-05-14T15:29:45.790Z,93684.91
2023-05-14T15:32:13.502Z,93673.09
2023-05-14T15:34:41.063Z,93664.53
2023-05-14T15:37:08.557Z,93664.53
2023-05-14T15:39:36.155Z,93683.19
2023-05-14T15:42:04.497Z,93685.28
2023-05-14T15:44:31.964Z,93685.00
2023-05-14T15:46:59.661Z,93679.44
2023-05-14T15:49:26.938Z,93679.66
2023-05-14T15:51:54.980Z,93667.75
2023-05-14T15:54:22.694Z,93670.94
2023-05-14T15:56:50.907Z,93677.69
2023-05-14T15:59:18.288Z,93672.81
2023-05-14T16:01:46.060Z,93680.84
2023-05-14T16:04:13.895Z,93646.59
2023-05-14T16:06:42.813Z,93663.91
2023-05-14T16:09:10.258Z,93660.50
2023-05-14T16:11:38.070Z,93649.53
2023-05-14T16:14:05.646Z,93657.56
2023-05-14T16:16:33.063Z,93654.69
2023-05-14T16:19:00.879Z,93640.69
2023-05-14T16:21:28.256Z,93647.13
2023-05-14T16:23:55.627Z,93649.09
2023-05-14T16:26:23.293Z,93639.75
2023-05-14T16:28:50.610Z,93634.09
2023-05-14T16:31:18.004Z,93647.72
2023-05-14T16:33:45.689Z,93654.84
2023-05-14T16:36:13.227Z,93655.19
2023-05-14T16:38:48.338Z,93662.03
2023-05-14T16:41:24.761Z,93659.97
2023-05-14T16:43:52.562Z,93669.03
2023-05-14T16:46:20.456Z,93671.72
2023-05-14T16:48:48.171Z,93668.75
2023-05-14T16:51:15.470Z,93667.97
2023-05-14T16:53:42.829Z,93658.31
2023-05-14T16:56:11.161Z,93661.28
2023-05-14T16:58:38.807Z,93664.41
2023-05-14T17:01:09.362Z,93662.28
2023-05-14T17:03:37.463Z,93658.16
2023-05-14T17:06:05.029Z,93657.94
2023-05-14T17:08:33.776Z,93645.69
2023-05-14T17:11:02.284Z,93635.69
2023-05-14T17:13:29.740Z,93632.94
2023-05-14T17:15:57.060Z,93630.75
2023-05-14T17:18:24.833Z,93629.44
2023-05-14T17:20:52.356Z,93630.75
2023-05-14T17:23:20.557Z,93635.91
2023-05-14T17:25:48.386Z,93634.06
2023-05-14T17:28:15.731Z,93623.13
2023-05-14T17:30:43.120Z,93609.06
2023-05-14T17:33:11.809Z,93610.91
2023-05-14T17:35:39.378Z,93605.13
2023-05-14T17:38:06.905Z,93604.22
2023-05-14T17:40:34.824Z,93601.00
2023-05-14T17:43:02.181Z,93597.25
2023-05-14T17:45:36.446Z,93594.19
2023-05-14T17:48:10.705Z,93586.94
2023-05-14T17:50:39.356Z,93586.94
2023-05-14T17:53:06.670Z,93580.12
2023-05-14T17:55:40.125Z,93584.94
2023-05-14T17:58:07.661Z,93582.34
2023-05-14T18:00:35.383Z,93589.00
2023-05-14T18:03:03.182Z,93597.56
2023-05-14T18:05:32.417Z,93586.84
2023-05-14T18:08:00.228Z,93585.78
2023-05-14T18:10:29.837Z,93591.06
2023-05-14T18:12:57.185Z,93596.09
2023-05-14T18:15:25.903Z,93602.69
2023-05-14T18:17:53.696Z,93591.91
2023-05-14T18:20:21.143Z,93597.13
2023-05-14T18:22:48.546Z,93591.59
2023-05-14T18:25:16.913Z,93600.09
2023-05-14T18:27:45.239Z,93601.16
2023-05-14T18:30:14.963Z,93603.00
2023-05-14T18:32:44.775Z,93600.16
2023-05-14T18:35:18.964Z,93593.34
2023-05-14T18:37:49.189Z,93598.81
2023-05-14T18:40:18.959Z,93608.22
2023-05-14T18:42:47.306Z,93604.66
2023-05-14T18:45:14.865Z,93581.28
2023-05-14T18:47:42.328Z,93587.16
2023-05-14T18:50:10.321Z,93578.31
2023-05-14T18:52:38.368Z,93586.50
2023-05-14T18:55:06.229Z,93591.84
2023-05-14T18:57:34.166Z,93588.63
2023-05-14T19:00:03.319Z,93597.22
2023-05-14T19:02:32.007Z,93602.28
2023-05-14T19:04:59.748Z,93602.72
2023-05-14T19:07:27.873Z,93610.47
2023-05-14T19:09:55.267Z,93618.09
2023-05-14T19:12:22.964Z,93594.12
2023-05-14T19:14:50.448Z,93583.66
2023-05-14T19:17:19.199Z,93578.53
2023-05-14T19:19:48.107Z,93583.13
2023-05-14T19:22:16.251Z,93570.03
2023-05-14T19:24:43.733Z,93587.12
2023-05-14T19:27:13.052Z,93571.59
2023-05-14T19:29:40.502Z,93579.44
2023-05-14T19:32:08.158Z,93598.00
2023-05-14T19:34:36.376Z,93600.75
2023-05-14T19:37:05.005Z,93610.53
2023-05-14T19:39:33.111Z,93604.56
2023-05-14T19:42:06.117Z,93604.84
2023-05-14T19:44:35.866Z,93603.00
2023-05-14T19:47:04.876Z,93610.38
2023-05-14T19:49:32.727Z,93595.16
2023-05-14T19:52:05.577Z,93589.47
2023-05-14T19:54:33.508Z,93583.13
2023-05-14T19:57:00.985Z,93586.16
2023-05-14T19:59:30.121Z,93584.34
2023-05-14T20:02:00.998Z,93572.84
2023-05-14T20:04:31.605Z,93574.38
2023-05-14T20:07:03.482Z,93577.56
2023-05-14T20:09:33.248Z,93581.06
2023-05-14T20:12:07.279Z,93580.75
2023-05-14T20:14:36.797Z,93580.50
2023-05-14T20:17:06.829Z,93588.47
2023-05-14T20:19:35.747Z,93573.69
2023-05-14T20:22:03.923Z,93572.78
2023-05-14T20:24:31.589Z,93556.97
2023-05-14T20:26:59.759Z,93559.91
2023-05-14T20:29:27.318Z,93565.78
2023-05-14T20:31:56.500Z,93561.37
2023-05-14T20:34:25.752Z,93562.81
2023-05-14T20:36:53.445Z,93561.56
2023-05-14T20:39:21.426Z,93563.31
2023-05-14T20:41:50.082Z,93574.09
2023-05-14T20:44:19.861Z,93573.31
2023-05-14T20:46:48.740Z,93580.16
2023-05-14T20:49:16.980Z,93589.34
2023-05-14T20:51:44.493Z,93594.81
2023-05-14T20:54:11.980Z,93585.84
2023-05-14T20:56:39.919Z,93576.41
2023-05-14T20:59:07.631Z,93559.94
2023-05-14T21:01:36.270Z,93554.81
2023-05-14T21:04:04.246Z,93558.00
2023-05-14T21:06:31.874Z,93545.37
2023-05-14T21:08:59.195Z,93545.19
2023-05-14T21:11:27.195Z,93546.56
2023-05-14T21:13:54.559Z,93544.28
2023-05-14T21:16:22.110Z,93555.16
2023-05-14T21:18:49.938Z,93551.19
2023-05-14T21:21:17.353Z,93556.06
2023-05-14T21:23:44.717Z,93549.16
2023-05-14T21:26:12.612Z,93538.69
2023-05-14T21:28:39.951Z,93551.84
2023-05-14T21:31:07.478Z,93544.00
2023-05-14T21:33:35.167Z,93551.19
2023-05-14T21:36:02.569Z,93554.81
2023-05-14T21:38:30.031Z,93547.44
2023-05-14T21:40:58.076Z,93546.53
2023-05-14T21:43:27.069Z,93551.97
2023-05-14T21:45:54.358Z,93551.41
2023-05-14T21:48:22.637Z,93547.44
2023-05-14T21:50:50.016Z,93541.12
2023-05-14T21:53:17.308Z,93539.53
2023-05-14T21:55:45.044Z,93547.00
2023-05-14T21:58:12.507Z,93546.47
2023-05-14T22:00:40.058Z,93543.50
2023-05-14T22:03:08.664Z,93541.25
2023-05-14T22:05:36.183Z,93542.25
2023-05-14T22:08:03.445Z,93538.84
2023-05-14T22:10:34.533Z,93543.94
2023-05-14T22:13:01.798Z,93549.56
2023-05-14T22:15:29.125Z,93541.19
2023-05-14T22:17:57.160Z,93535.63
2023-05-14T22:20:24.575Z,93529.25
2023-05-14T22:22:51.885Z,93529.81
2023-05-14T22:25:19.487Z,93518.69
2023-05-14T22:27:46.797Z,93519.94
2023-05-14T22:30:14.128Z,93525.84
2023-05-14T22:32:41.758Z,93524.94
2023-05-14T22:35:09.349Z,93520.38
2023-05-14T22:37:36.709Z,93516.28
2023-05-14T22:40:05.404Z,93521.75
2023-05-14T22:42:32.661Z,93516.75
2023-05-14T22:44:59.866Z,93518.75
2023-05-14T22:47:27.628Z,93518.97
2023-05-14T22:49:54.907Z,93517.19
2023-05-14T22:52:22.200Z,93531.84
2023-05-14T22:54:51.201Z,93522.06
2023-05-14T22:57:18.542Z,93519.00
2023-05-14T22:59:45.706Z,93511.34
2023-05-14T23:02:13.491Z,93501.63
2023-05-14T23:04:41.096Z,93497.28
2023-05-14T23:07:08.381Z,93501.25
2023-05-14T23:09:36.056Z,93506.09
2023-05-14T23:12:03.450Z,93494.72
2023-05-14T23:14:30.711Z,93501.44
2023-05-14T23:17:02.032Z,93500.97
2023-05-14T23:19:29.581Z,93508.38
2023-05-14T23:21:58.478Z,93492.91
2023-05-14T23:24:26.455Z,93508.50
2023-05-14T23:26:53.713Z,93503.00
2023-05-14T23:29:20.995Z,93495.97
2023-05-14T23:31:48.578Z,93503.81
2023-05-14T23:34:16.290Z,93494.38
2023-05-14T23:36:43.808Z,93482.06
2023-05-14T23:39:11.629Z,93472.12
2023-05-14T23:41:38.859Z,93459.66
2023-05-14T23:44:06.336Z,93467.13
2023-05-14T23:46:35.018Z,93467.25
2023-05-14T23:49:02.256Z,93473.41
2023-05-14T23:51:29.822Z,93479.41
2023-05-14T23:53:58.713Z,93469.63
2023-05-14T23:56:27.532Z,93456.94
2023-05-14T23:58:55.583Z,93452.19
